Time;durP1;ratioP1;P1;durP2;ratioP2;P2;SDS_P1;SDS_P2;PMS_P1;PMS_P2;Temp;Humidity;BMP_temperature;BMP_pressure;BME280_temperature;BME280_humidity;BME280_pressure;Samples;Min_cycle;Max_cycle;Signal;HPM_P1;HPM_P2
2023/09/19 00:01:44;;;;;;;3.97;0.70;;;14.10;99.90;;;;;;4987179;28;20161;-34
2023/09/19 00:04:09;;;;;;;3.42;0.40;;;14.10;99.90;;;;;;4986227;28;20551;-34
2023/09/19 00:06:36;;;;;;;3.17;0.70;;;14.10;99.90;;;;;;4983583;28;20078;-34
2023/09/19 00:09:03;;;;;;;5.68;1.17;;;14.10;99.90;;;;;;4988030;28;20046;-34
2023/09/19 00:11:29;;;;;;;3.30;0.60;;;14.00;99.90;;;;;;4989099;28;20058;-34
2023/09/19 00:13:55;;;;;;;4.10;0.50;;;14.00;99.90;;;;;;4989267;28;20459;-34
2023/09/19 00:16:20;;;;;;;4.03;0.70;;;14.00;99.90;;;;;;4988555;28;20046;-34
2023/09/19 00:18:46;;;;;;;6.65;0.70;;;14.00;99.90;;;;;;4987070;28;20074;-34
2023/09/19 00:21:12;;;;;;;5.63;0.90;;;14.00;99.90;;;;;;4985747;28;20050;-34
2023/09/19 00:23:40;;;;;;;6.60;0.88;;;14.00;99.90;;;;;;4987629;28;20065;-34
2023/09/19 00:26:06;;;;;;;6.03;0.90;;;14.00;99.90;;;;;;4988542;28;20054;-34
2023/09/19 00:28:32;;;;;;;7.22;1.15;;;14.00;99.90;;;;;;4963802;28;20051;-34
2023/09/19 00:31:01;;;;;;;3.40;0.60;;;14.00;99.90;;;;;;4986064;28;20054;-34
2023/09/19 00:33:29;;;;;;;6.63;0.90;;;13.90;99.90;;;;;;4982860;28;20550;-34
2023/09/19 00:35:57;;;;;;;6.45;0.85;;;13.90;99.90;;;;;;4985071;28;20053;-34
2023/09/19 00:38:26;;;;;;;4.90;0.63;;;13.90;99.90;;;;;;4986411;28;20125;-34
2023/09/19 00:40:53;;;;;;;6.03;1.25;;;13.90;99.90;;;;;;4985646;28;20505;-34
2023/09/19 00:43:20;;;;;;;12.95;1.30;;;13.90;99.90;;;;;;4986361;28;20054;-34
2023/09/19 00:45:48;;;;;;;7.97;1.35;;;13.90;99.90;;;;;;4981508;28;20054;-34
2023/09/19 00:48:15;;;;;;;11.48;1.25;;;13.80;99.90;;;;;;4984150;28;20093;-34
2023/09/19 00:50:43;;;;;;;6.25;1.27;;;13.90;99.90;;;;;;4985027;28;20057;-34
2023/09/19 00:53:13;;;;;;;6.78;0.98;;;13.80;99.90;;;;;;4986435;28;20069;-34
2023/09/19 00:55:41;;;;;;;5.72;1.13;;;13.80;99.90;;;;;;4983435;28;20496;-34
2023/09/19 00:58:07;;;;;;;5.18;0.80;;;13.80;99.90;;;;;;4980363;28;20061;-34
2023/09/19 01:00:34;;;;;;;4.43;0.80;;;13.80;99.90;;;;;;4979991;28;20458;-34
2023/09/19 01:03:03;;;;;;;4.10;0.55;;;13.70;99.90;;;;;;4996103;28;20053;-34
2023/09/19 01:05:32;;;;;;;5.57;1.08;;;13.70;99.90;;;;;;4981666;28;20054;-34
2023/09/19 01:07:58;;;;;;;9.43;1.30;;;13.60;99.90;;;;;;4981523;28;20133;-34
2023/09/19 01:10:25;;;;;;;7.18;0.90;;;13.60;99.90;;;;;;4980420;28;20050;-34
2023/09/19 01:13:17;;;;;;;5.80;0.88;;;13.60;99.90;;;;;;4981738;28;20069;-34
2023/09/19 01:16:19;;;;;;;5.32;0.70;;;13.60;99.90;;;;;;4982251;28;20058;-34
2023/09/19 01:18:59;;;;;;;5.67;0.80;;;13.60;99.90;;;;;;4980294;28;20097;-34
2023/09/19 01:21:42;;;;;;;3.40;0.70;;;13.60;99.90;;;;;;4983506;28;20093;-34
2023/09/19 01:24:14;;;;;;;6.05;0.80;;;13.60;99.90;;;;;;4980563;28;20046;-34
2023/09/19 01:26:52;;;;;;;5.93;0.88;;;13.60;99.90;;;;;;4983425;28;20471;-34
2023/09/19 01:29:43;;;;;;;3.65;0.63;;;13.50;99.90;;;;;;4978721;28;20057;-35
2023/09/19 01:32:09;;;;;;;4.43;0.70;;;13.50;99.90;;;;;;4980322;28;20042;-34
2023/09/19 01:34:52;;;;;;;7.57;1.27;;;13.50;99.90;;;;;;4983054;28;20046;-35
2023/09/19 01:37:24;;;;;;;5.90;1.10;;;13.50;99.90;;;;;;4980463;28;20053;-35
2023/09/19 01:40:16;;;;;;;4.25;0.98;;;13.50;99.90;;;;;;4983401;28;20069;-34
2023/09/19 01:42:59;;;;;;;4.07;0.90;;;13.50;99.90;;;;;;4995625;28;20050;-34
2023/09/19 01:45:32;;;;;;;;;;;13.50;99.90;;;;;;4980469;28;20058;-34
2023/09/19 01:48:26;;;;;;;6.18;1.02;;;13.40;99.90;;;;;;4979941;28;19925;-34
2023/09/19 01:51:07;;;;;;;6.32;1.38;;;13.40;99.90;;;;;;4982146;28;20046;-34
2023/09/19 01:54:03;;;;;;;6.38;0.90;;;13.40;99.90;;;;;;4981325;28;20069;-34
2023/09/19 01:56:51;;;;;;;4.72;0.98;;;13.50;99.90;;;;;;4996583;28;20070;-34
2023/09/19 01:59:24;;;;;;;8.60;1.38;;;13.40;99.90;;;;;;4980930;28;20175;-33
2023/09/19 02:01:53;;;;;;;6.72;1.17;;;13.40;99.90;;;;;;4979678;28;20107;-33
2023/09/19 02:04:18;;;;;;;5.78;0.82;;;13.40;99.90;;;;;;4980225;28;20145;-33
2023/09/19 02:06:47;;;;;;;5.30;0.85;;;13.40;99.90;;;;;;4979739;28;20141;-33
2023/09/19 02:09:14;;;;;;;8.52;1.05;;;13.40;99.90;;;;;;4983600;28;20073;-33
2023/09/19 02:11:40;;;;;;;5.85;0.77;;;13.40;99.90;;;;;;4985784;28;20068;-33
2023/09/19 02:14:08;;;;;;;5.75;0.88;;;13.40;99.90;;;;;;4984215;28;20055;-33
2023/09/19 02:16:34;;;;;;;10.50;1.60;;;13.40;99.90;;;;;;4970720;28;20060;-33
2023/09/19 02:19:00;;;;;;;2.97;0.85;;;13.30;99.90;;;;;;4971829;28;20042;-33
2023/09/19 02:21:29;;;;;;;3.63;0.60;;;13.40;99.90;;;;;;4988744;28;20053;-33
2023/09/19 02:23:55;;;;;;;5.15;0.70;;;13.30;99.90;;;;;;4983463;28;20054;-33
2023/09/19 02:26:25;;;;;;;4.80;0.80;;;13.30;99.90;;;;;;4987687;28;20047;-33
2023/09/19 02:28:51;;;;;;;8.73;0.98;;;13.30;99.90;;;;;;4984023;28;20500;-33
2023/09/19 02:31:16;;;;;;;4.53;0.73;;;13.30;99.90;;;;;;4986852;28;20138;-33
2023/09/19 02:33:43;;;;;;;6.22;0.80;;;13.30;99.90;;;;;;4985035;28;20065;-34
2023/09/19 02:36:09;;;;;;;7.47;0.70;;;13.30;99.90;;;;;;4989059;28;20054;-34
2023/09/19 02:38:35;;;;;;;5.35;0.80;;;13.30;99.90;;;;;;4986877;28;20078;-34
2023/09/19 02:41:01;;;;;;;6.20;1.00;;;13.30;99.90;;;;;;4992653;28;20124;-34
2023/09/19 02:43:27;;;;;;;6.78;0.88;;;13.30;99.90;;;;;;4989813;28;21305;-34
2023/09/19 02:45:53;;;;;;;8.63;0.80;;;13.30;99.90;;;;;;4986325;28;20061;-34
2023/09/19 02:48:19;;;;;;;5.30;0.80;;;13.30;99.90;;;;;;4984685;28;20054;-33
2023/09/19 02:50:45;;;;;;;5.75;1.08;;;13.30;99.90;;;;;;4986872;28;20050;-34
2023/09/19 02:53:12;;;;;;;5.97;1.00;;;13.30;99.90;;;;;;4985312;28;20046;-34
2023/09/19 02:55:40;;;;;;;6.47;0.93;;;13.30;99.90;;;;;;4989277;28;20459;-34
2023/09/19 02:58:11;;;;;;;5.53;1.10;;;13.30;99.90;;;;;;4966720;28;20050;-34
2023/09/19 03:00:37;;;;;;;5.07;0.90;;;13.30;99.90;;;;;;4968882;28;20109;-34
2023/09/19 03:03:04;;;;;;;5.80;1.52;;;13.30;99.90;;;;;;4967289;28;20046;-34
2023/09/19 03:05:31;;;;;;;5.93;0.85;;;13.40;99.90;;;;;;4989886;28;20054;-33
2023/09/19 03:08:00;;;;;;;4.53;0.50;;;13.40;99.90;;;;;;4970123;28;20058;-33
2023/09/19 03:10:26;;;;;;;5.45;1.02;;;13.50;99.90;;;;;;4985584;28;20050;-33
2023/09/19 03:12:52;;;;;;;5.22;0.80;;;13.50;99.90;;;;;;4981337;28;20065;-33
2023/09/19 03:15:18;;;;;;;3.75;0.70;;;13.60;99.90;;;;;;4989363;28;20066;-33
2023/09/19 03:17:48;;;;;;;5.20;0.65;;;13.60;99.90;;;;;;4987972;28;20053;-33
2023/09/19 03:20:17;;;;;;;6.05;0.80;;;13.60;99.90;;;;;;4986639;28;20180;-33
2023/09/19 03:22:46;;;;;;;4.50;1.00;;;13.70;99.90;;;;;;4988331;28;20500;-33
2023/09/19 03:25:11;;;;;;;11.18;0.82;;;13.70;99.90;;;;;;4986371;28;20047;-33
2023/09/19 03:27:40;;;;;;;3.20;0.85;;;13.70;99.90;;;;;;4985920;28;20404;-33
2023/09/19 03:30:08;;;;;;;5.45;0.80;;;13.80;99.90;;;;;;4987094;28;20046;-34
2023/09/19 03:32:37;;;;;;;4.03;0.65;;;13.70;99.90;;;;;;4987875;28;20096;-34
2023/09/19 03:35:05;;;;;;;5.00;0.95;;;13.80;99.90;;;;;;4986699;28;20496;-34
2023/09/19 03:37:32;;;;;;;5.22;0.80;;;13.70;99.90;;;;;;4969777;28;20496;-34
2023/09/19 03:39:57;;;;;;;3.45;0.65;;;13.80;99.90;;;;;;4987639;28;20133;-34
2023/09/19 03:42:25;;;;;;;7.10;0.70;;;13.70;99.90;;;;;;4986297;28;20551;-34
2023/09/19 03:44:52;;;;;;;4.20;0.77;;;13.70;99.90;;;;;;4988341;28;20492;-34
2023/09/19 03:47:18;;;;;;;5.97;0.70;;;13.70;99.90;;;;;;4981288;28;20113;-34
2023/09/19 03:49:44;;;;;;;3.90;0.90;;;13.70;99.90;;;;;;4986913;28;20048;-34
2023/09/19 03:52:10;;;;;;;8.55;0.90;;;13.70;99.90;;;;;;4985898;28;20420;-34
2023/09/19 03:54:35;;;;;;;4.53;0.80;;;13.70;99.90;;;;;;4988786;28;20516;-34
2023/09/19 03:57:04;;;;;;;5.38;0.85;;;13.70;99.90;;;;;;4986612;28;20070;-34
2023/09/19 03:59:29;;;;;;;6.35;0.82;;;13.60;99.90;;;;;;4987574;28;20077;-34
2023/09/19 04:01:57;;;;;;;4.10;0.88;;;13.60;99.90;;;;;;4990228;28;20481;-34
2023/09/19 04:04:24;;;;;;;5.82;1.00;;;13.60;99.90;;;;;;4986929;28;20043;-34
2023/09/19 04:06:53;;;;;;;7.95;1.20;;;13.60;99.90;;;;;;4984619;28;20058;-35
2023/09/19 04:09:19;;;;;;;5.18;0.98;;;13.50;99.90;;;;;;4984052;28;20544;-34
2023/09/19 04:11:45;;;;;;;6.45;1.10;;;13.50;99.90;;;;;;4988361;28;20137;-34
2023/09/19 04:14:11;;;;;;;7.18;1.05;;;13.50;99.90;;;;;;4985164;28;20053;-34
2023/09/19 04:16:37;;;;;;;3.83;0.73;;;13.50;99.90;;;;;;4969673;28;20416;-34
2023/09/19 04:19:03;;;;;;;4.75;0.95;;;13.50;99.90;;;;;;4968413;28;20420;-35
2023/09/19 04:21:29;;;;;;;3.42;0.85;;;13.50;99.90;;;;;;4987692;28;20167;-34
2023/09/19 04:23:55;;;;;;;8.93;0.90;;;13.50;99.90;;;;;;4982730;28;20510;-34
2023/09/19 04:26:21;;;;;;;7.22;1.05;;;13.50;99.90;;;;;;4985450;28;20054;-34
2023/09/19 04:28:47;;;;;;;6.07;1.23;;;13.50;99.90;;;;;;4986621;28;20112;-34
2023/09/19 04:31:13;;;;;;;5.68;1.27;;;13.50;99.90;;;;;;4983459;28;20050;-34
2023/09/19 04:33:39;;;;;;;6.82;1.15;;;13.50;99.90;;;;;;4985839;28;20500;-35
2023/09/19 04:36:07;;;;;;;4.53;1.58;;;13.40;99.90;;;;;;4992215;28;20050;-34
2023/09/19 04:38:33;;;;;;;9.48;0.85;;;13.50;99.90;;;;;;5003809;28;20133;-35
2023/09/19 04:40:59;;;;;;;6.22;0.88;;;13.50;99.90;;;;;;4984069;28;20141;-35
2023/09/19 04:43:25;;;;;;;5.88;0.85;;;13.40;99.90;;;;;;4987900;28;20053;-32
2023/09/19 04:45:55;;;;;;;7.93;1.17;;;13.40;99.90;;;;;;4971557;28;20065;-33
2023/09/19 04:48:26;;;;;;;6.47;1.17;;;13.40;99.90;;;;;;4985325;28;20057;-33
2023/09/19 04:50:52;;;;;;;11.73;1.13;;;13.40;99.90;;;;;;4986331;28;20205;-33
2023/09/19 04:53:20;;;;;;;5.32;1.10;;;13.40;99.90;;;;;;4987683;28;20058;-34
2023/09/19 04:55:52;;;;;;;6.85;1.30;;;13.40;99.90;;;;;;4988637;28;20046;-34
2023/09/19 04:58:20;;;;;;;3.15;0.90;;;13.40;99.90;;;;;;4984722;28;20066;-35
2023/09/19 05:00:45;;;;;;;3.65;1.05;;;13.40;99.90;;;;;;4981994;28;20153;-34
2023/09/19 05:03:11;;;;;;;5.35;1.10;;;13.40;99.90;;;;;;4985532;28;20196;-39
2023/09/19 05:05:38;;;;;;;3.95;0.70;;;13.40;99.90;;;;;;4981986;28;20077;-34
2023/09/19 05:08:05;;;;;;;5.60;1.00;;;13.40;99.90;;;;;;4983233;28;20046;-34
2023/09/19 05:10:32;;;;;;;6.72;2.10;;;13.40;99.90;;;;;;4983596;28;20078;-34
2023/09/19 05:12:57;;;;;;;8.18;1.30;;;13.30;99.90;;;;;;4985458;28;20459;-34
2023/09/19 05:15:23;;;;;;;8.63;1.55;;;13.30;99.90;;;;;;4987713;28;20057;-34
2023/09/19 05:17:51;;;;;;;9.20;2.00;;;13.30;99.90;;;;;;4986053;28;20141;-34
2023/09/19 05:20:25;;;;;;;8.38;1.45;;;13.20;99.90;;;;;;4949731;28;20139;-34
2023/09/19 05:23:20;;;;;;;9.25;0.95;;;13.20;99.90;;;;;;4983144;28;20500;-34
2023/09/19 05:25:46;;;;;;;8.93;1.58;;;13.10;99.90;;;;;;4981366;28;20082;-34
2023/09/19 05:28:14;;;;;;;10.93;1.00;;;13.10;99.90;;;;;;4975679;28;20129;-34
2023/09/19 05:30:42;;;;;;;5.10;1.05;;;13.10;99.90;;;;;;4979631;28;20078;-34
2023/09/19 05:33:09;;;;;;;9.02;1.20;;;13.10;99.90;;;;;;4986162;28;20116;-34
2023/09/19 05:35:37;;;;;;;5.60;0.77;;;13.10;99.90;;;;;;4999787;28;20054;-34
2023/09/19 05:38:05;;;;;;;8.10;0.95;;;13.10;99.90;;;;;;4985837;28;20408;-35
2023/09/19 05:40:31;;;;;;;3.97;0.90;;;13.10;99.90;;;;;;4989507;28;20264;-34
2023/09/19 05:42:57;;;;;;;6.10;1.27;;;13.00;99.90;;;;;;4982715;28;20050;-34
2023/09/19 05:45:22;;;;;;;6.53;1.00;;;13.00;99.90;;;;;;4985067;28;20114;-34
2023/09/19 05:47:49;;;;;;;9.18;0.90;;;13.10;99.90;;;;;;4985398;28;20445;-35
2023/09/19 05:50:16;;;;;;;6.30;0.93;;;13.10;99.90;;;;;;4980570;28;20046;-34
2023/09/19 05:52:44;;;;;;;6.55;1.02;;;13.10;99.90;;;;;;4982388;28;20053;-34
2023/09/19 05:55:10;;;;;;;7.88;0.80;;;13.10;99.90;;;;;;4983686;28;20045;-34
2023/09/19 05:57:39;;;;;;;8.02;0.90;;;13.10;99.90;;;;;;4978956;28;20065;-34
2023/09/19 06:00:10;;;;;;;10.80;1.00;;;13.10;99.90;;;;;;4976952;28;20563;-34
2023/09/19 06:02:38;;;;;;;9.68;1.33;;;13.20;99.90;;;;;;4975439;28;20057;-34
2023/09/19 06:05:10;;;;;;;6.80;1.10;;;13.30;99.90;;;;;;4975650;28;20120;-34
2023/09/19 06:07:37;;;;;;;7.55;1.48;;;13.30;99.90;;;;;;4983007;28;20046;-34
2023/09/19 06:10:05;;;;;;;5.22;0.80;;;13.40;99.90;;;;;;4982189;28;20042;-34
2023/09/19 06:12:33;;;;;;;6.35;0.80;;;13.40;99.90;;;;;;4984830;28;20112;-34
2023/09/19 06:14:59;;;;;;;4.30;0.77;;;13.40;99.90;;;;;;4986223;28;20050;-34
2023/09/19 06:17:26;;;;;;;6.18;1.25;;;13.50;99.90;;;;;;4999696;28;20050;-34
2023/09/19 06:19:52;;;;;;;8.27;1.58;;;13.50;99.90;;;;;;4981867;28;20046;-34
2023/09/19 06:22:18;;;;;;;5.78;0.98;;;13.50;99.90;;;;;;4977619;28;20065;-34
2023/09/19 06:24:45;;;;;;;6.22;1.23;;;13.50;99.90;;;;;;4983574;28;20076;-34
2023/09/19 06:27:10;;;;;;;7.28;0.98;;;13.40;99.90;;;;;;4983418;28;20065;-35
2023/09/19 06:29:37;;;;;;;7.78;0.98;;;13.50;99.90;;;;;;4974625;28;20050;-34
2023/09/19 06:32:10;;;;;;;8.13;0.90;;;13.50;99.90;;;;;;4978970;28;20054;-34
2023/09/19 06:34:38;;;;;;;5.25;1.77;;;13.50;99.90;;;;;;4982419;28;20512;-35
2023/09/19 06:37:05;;;;;;;6.68;1.20;;;13.50;99.90;;;;;;4977130;28;20056;-34
2023/09/19 06:39:31;;;;;;;4.30;0.90;;;13.50;99.90;;;;;;4983383;28;20137;-34
2023/09/19 06:41:58;;;;;;;5.95;0.90;;;13.50;99.90;;;;;;4981338;28;20259;-34
2023/09/19 06:44:24;;;;;;;5.30;1.00;;;13.50;99.90;;;;;;4976095;28;20043;-34
2023/09/19 06:46:51;;;;;;;7.25;0.68;;;13.50;99.90;;;;;;4983073;28;20197;-34
2023/09/19 06:49:17;;;;;;;6.60;1.25;;;13.60;99.90;;;;;;4980193;28;20423;-34
2023/09/19 06:51:43;;;;;;;6.68;1.40;;;13.70;99.90;;;;;;4985673;28;20603;-34
2023/09/19 06:54:10;;;;;;;7.68;0.98;;;13.80;99.90;;;;;;4982554;28;20133;-34
2023/09/19 06:56:35;;;;;;;5.47;1.17;;;13.80;99.90;;;;;;4990689;28;20054;-34
2023/09/19 06:59:02;;;;;;;7.35;0.80;;;13.90;99.90;;;;;;4989611;28;20527;-34
2023/09/19 07:01:28;;;;;;;8.48;1.23;;;13.90;99.90;;;;;;4990267;28;20535;-34
2023/09/19 07:03:54;;;;;;;6.72;1.05;;;14.00;99.90;;;;;;4987093;28;20074;-34
2023/09/19 07:06:20;;;;;;;5.93;1.00;;;14.00;99.90;;;;;;4989514;28;20408;-34
2023/09/19 07:08:46;;;;;;;4.78;0.95;;;14.10;99.90;;;;;;4988307;28;20078;-34
2023/09/19 07:11:12;;;;;;;7.30;0.80;;;14.10;99.90;;;;;;5003684;28;20460;-34
2023/09/19 07:13:39;;;;;;;5.88;1.05;;;14.20;99.90;;;;;;4971511;28;20054;-34
2023/09/19 07:16:04;;;;;;;8.93;2.80;;;14.30;99.90;;;;;;5006607;28;20181;-34
2023/09/19 07:18:31;;;;;;;6.50;1.20;;;14.30;99.90;;;;;;4977011;28;20541;-34
2023/09/19 07:21:04;;;;;;;7.03;0.90;;;14.30;99.90;;;;;;4988473;28;20054;-34
2023/09/19 07:23:34;;;;;;;8.73;1.27;;;14.40;99.90;;;;;;4988806;28;20087;-35
2023/09/19 07:26:01;;;;;;;6.47;1.27;;;14.30;99.90;;;;;;4990223;28;20051;-34
2023/09/19 07:28:28;;;;;;;7.15;1.30;;;14.40;99.90;;;;;;4990382;28;20515;-34
2023/09/19 07:30:53;;;;;;;5.80;0.95;;;14.40;99.90;;;;;;4989541;28;20050;-34
2023/09/19 07:33:19;;;;;;;6.68;0.93;;;14.50;99.90;;;;;;4989655;28;20185;-35
2023/09/19 07:35:46;;;;;;;6.43;1.17;;;14.60;99.90;;;;;;4985346;28;20050;-34
2023/09/19 07:38:12;;;;;;;7.43;1.13;;;14.60;99.90;;;;;;4989096;28;20061;-34
2023/09/19 07:40:37;;;;;;;8.32;1.00;;;14.70;99.90;;;;;;4992213;28;20058;-34
2023/09/19 07:43:04;;;;;;;7.97;1.08;;;14.80;99.90;;;;;;4988881;28;20050;-34
2023/09/19 07:45:31;;;;;;;5.65;0.77;;;14.80;99.90;;;;;;4986404;28;20065;-34
2023/09/19 07:47:57;;;;;;;5.30;1.05;;;14.90;99.90;;;;;;4991030;28;20061;-35
2023/09/19 07:50:23;;;;;;;10.68;1.40;;;14.90;99.90;;;;;;4991007;28;20050;-34
2023/09/19 07:52:53;;;;;;;7.95;1.15;;;14.90;99.90;;;;;;4990379;28;20098;-34
2023/09/19 07:55:23;;;;;;;6.65;1.33;;;14.90;99.90;;;;;;4986678;28;20740;-34
2023/09/19 07:57:49;;;;;;;6.50;1.42;;;15.00;99.90;;;;;;5002999;28;20042;-34
2023/09/19 08:00:15;;;;;;;11.57;1.48;;;15.00;99.90;;;;;;4989036;28;20057;-34
2023/09/19 08:02:42;;;;;;;5.65;0.98;;;15.00;99.90;;;;;;4991785;28;20133;-34
2023/09/19 08:05:12;;;;;;;5.85;1.50;;;15.10;99.90;;;;;;4973173;28;20086;-34
2023/09/19 08:07:38;;;;;;;7.13;1.38;;;15.20;99.90;;;;;;4987111;28;20635;-34
2023/09/19 08:10:13;;;;;;;7.75;1.20;;;15.20;99.90;;;;;;4990947;28;20065;-34
2023/09/19 08:12:46;;;;;;;6.22;0.82;;;15.20;99.90;;;;;;4983382;28;20050;-34
2023/09/19 08:15:16;;;;;;;12.18;1.63;;;15.20;99.90;;;;;;4985931;28;20054;-34
2023/09/19 08:17:42;;;;;;;9.85;1.50;;;15.30;99.90;;;;;;4988578;28;20570;-34
2023/09/19 08:20:19;;;;;;;6.45;0.80;;;15.20;99.90;;;;;;4989658;28;20050;-34
2023/09/19 08:22:49;;;;;;;9.48;1.38;;;15.30;99.90;;;;;;4990687;28;20057;-35
2023/09/19 08:25:18;;;;;;;11.10;1.02;;;15.50;99.90;;;;;;4991005;28;20507;-34
2023/09/19 08:27:49;;;;;;;11.05;1.33;;;15.50;99.90;;;;;;4989885;28;20137;-34
2023/09/19 08:30:23;;;;;;;9.38;1.35;;;15.50;99.90;;;;;;4989890;28;20184;-34
2023/09/19 08:32:59;;;;;;;7.68;1.05;;;15.50;99.90;;;;;;4989772;28;20100;-35
2023/09/19 08:35:24;;;;;;;5.63;1.08;;;15.50;99.90;;;;;;4982879;28;20050;-34
2023/09/19 08:37:51;;;;;;;11.05;1.27;;;15.60;99.90;;;;;;4986035;28;20420;-35
2023/09/19 08:40:17;;;;;;;8.65;1.33;;;15.60;99.90;;;;;;4990147;28;20504;-35
2023/09/19 08:42:50;;;;;;;7.97;1.42;;;15.70;99.90;;;;;;4989383;28;20141;-34
2023/09/19 08:45:16;;;;;;;6.60;1.00;;;15.80;99.90;;;;;;4990775;28;20042;-35
2023/09/19 08:47:59;;;;;;;9.63;1.17;;;15.90;99.90;;;;;;4981518;28;20050;-35
2023/09/19 08:50:28;;;;;;;3.42;0.70;;;15.90;99.90;;;;;;4990720;28;20138;-35
2023/09/19 08:52:56;;;;;;;7.53;1.02;;;16.00;99.90;;;;;;4986305;28;20080;-35
2023/09/19 08:55:27;;;;;;;6.97;1.55;;;16.10;99.90;;;;;;4990213;28;20513;-35
2023/09/19 08:58:01;;;;;;;5.45;1.05;;;16.20;99.90;;;;;;4985634;28;20050;-34
2023/09/19 09:00:28;;;;;;;6.28;1.10;;;16.30;99.90;;;;;;4987109;28;20496;-35
2023/09/19 09:02:55;;;;;;;9.38;1.70;;;16.40;99.90;;;;;;4972062;28;20053;-35
2023/09/19 09:05:23;;;;;;;7.55;1.10;;;16.50;99.90;;;;;;4988712;28;20082;-35
2023/09/19 09:07:52;;;;;;;5.78;1.27;;;16.50;99.90;;;;;;4983421;28;20050;-35
2023/09/19 09:10:22;;;;;;;9.10;1.00;;;16.70;99.90;;;;;;4988476;28;20050;-34
2023/09/19 09:12:58;;;;;;;9.25;1.02;;;16.80;99.90;;;;;;4989817;28;20046;-35
2023/09/19 09:15:24;;;;;;;8.30;1.30;;;16.80;99.90;;;;;;4989239;28;20054;-35
2023/09/19 09:17:54;;;;;;;6.28;1.08;;;17.00;99.90;;;;;;4986666;28;20146;-35
2023/09/19 09:20:20;;;;;;;6.70;0.98;;;17.10;99.90;;;;;;4988408;28;20073;-35
2023/09/19 09:22:54;;;;;;;9.10;1.17;;;17.10;99.90;;;;;;4987595;28;20051;-35
2023/09/19 09:25:23;;;;;;;7.63;1.10;;;17.10;99.90;;;;;;5004370;28;20089;-35
2023/09/19 09:28:01;;;;;;;5.20;0.98;;;17.10;99.90;;;;;;4988643;28;20049;-35
2023/09/19 09:30:34;;;;;;;6.30;1.17;;;17.10;99.90;;;;;;4985545;28;20035;-35
2023/09/19 09:33:11;;;;;;;11.23;1.45;;;17.10;99.90;;;;;;4986886;28;20089;-35
2023/09/19 09:35:53;;;;;;;7.05;1.60;;;17.20;99.90;;;;;;4985756;28;20050;-35
2023/09/19 09:38:19;;;;;;;;;;;17.20;99.90;;;;;;4984911;28;20069;-33
2023/09/19 09:41:05;;;;;;;5.95;1.60;;;17.20;99.90;;;;;;4986862;28;20008;-33
2023/09/19 09:43:35;;;;;;;12.13;1.48;;;17.20;99.90;;;;;;4990833;28;20488;-35
2023/09/19 09:52:06;;;;;;;6.90;1.30;;;17.30;99.90;;;;;;4983807;28;20058;-35
2023/09/19 09:54:39;;;;;;;6.63;1.33;;;17.40;99.90;;;;;;4985979;28;20061;-35
2023/09/19 09:57:20;;;;;;;;;;;17.30;99.90;;;;;;4986740;28;20125;-33
2023/09/19 09:59:50;;;;;;;8.60;1.13;;;17.30;99.90;;;;;;4988065;28;19918;-35
2023/09/19 10:02:25;;;;;;;10.75;1.92;;;17.40;99.90;;;;;;4987903;28;20085;-34
2023/09/19 10:04:52;;;;;;;9.82;1.60;;;17.50;99.90;;;;;;4974815;28;20126;-35
2023/09/19 10:07:40;;;;;;;8.30;1.50;;;17.50;99.90;;;;;;4987862;28;20054;-33
2023/09/19 10:10:15;;;;;;;5.18;1.60;;;17.60;99.90;;;;;;4986458;28;20113;-35
2023/09/19 10:12:47;;;;;;;7.15;0.90;;;17.50;99.90;;;;;;4985255;28;20492;-34
2023/09/19 10:15:20;;;;;;;6.05;1.17;;;17.40;99.90;;;;;;4988747;28;20057;-34
2023/09/19 10:17:46;;;;;;;;;;;17.30;99.90;;;;;;4986215;28;20049;-34
2023/09/19 10:20:22;;;;;;;6.00;1.38;;;17.40;99.90;;;;;;4987965;28;20367;-34
2023/09/19 10:22:57;;;;;;;10.15;1.50;;;17.60;99.90;;;;;;4987598;28;20049;-34
2023/09/19 10:25:33;;;;;;;7.50;1.30;;;17.80;99.90;;;;;;4984938;28;20176;-34
2023/09/19 10:28:03;;;;;;;8.60;1.20;;;17.80;99.90;;;;;;4984490;28;20056;-35
2023/09/19 10:30:31;;;;;;;4.95;1.48;;;17.90;99.90;;;;;;4988010;28;20054;-34
2023/09/19 10:33:01;;;;;;;7.53;0.82;;;17.90;99.90;;;;;;4992382;28;20513;-35
2023/09/19 10:35:28;;;;;;;8.77;1.92;;;18.00;99.90;;;;;;4991472;28;20051;-34
2023/09/19 10:37:57;;;;;;;8.35;2.03;;;18.00;99.90;;;;;;4991399;28;20054;-34
2023/09/19 10:40:30;;;;;;;7.68;1.25;;;18.10;99.90;;;;;;4984392;28;20065;-34
2023/09/19 10:43:07;;;;;;;6.07;1.05;;;18.00;99.90;;;;;;4991439;28;20163;-34
2023/09/19 10:45:35;;;;;;;8.32;1.98;;;17.90;99.90;;;;;;4991113;28;20050;-34
2023/09/19 10:48:03;;;;;;;4.45;0.98;;;17.80;99.90;;;;;;4988671;28;20066;-33
2023/09/19 10:50:41;;;;;;;8.55;1.15;;;17.70;99.90;;;;;;4985520;28;20059;-33
2023/09/19 10:53:10;;;;;;;3.85;0.93;;;17.70;99.90;;;;;;4987965;28;20057;-33
2023/09/19 10:55:36;;;;;;;6.35;1.10;;;17.80;99.90;;;;;;4987860;28;20042;-34
2023/09/19 10:58:13;;;;;;;4.65;1.50;;;18.00;99.90;;;;;;4990663;28;20173;-35
2023/09/19 11:01:17;;;;;;;11.80;1.67;;;18.10;99.90;;;;;;4987370;28;20046;-35
2023/09/19 11:03:43;;;;;;;8.35;1.67;;;18.30;99.90;;;;;;4991837;28;20056;-34
2023/09/19 11:06:18;;;;;;;10.57;1.30;;;18.40;99.90;;;;;;4987858;28;20137;-35
2023/09/19 11:09:07;;;;;;;5.97;0.98;;;18.50;99.90;;;;;;4975223;28;20496;-35
2023/09/19 11:11:39;;;;;;;6.93;1.30;;;18.60;99.90;;;;;;4992910;28;20052;-34
2023/09/19 11:14:15;;;;;;;8.75;1.45;;;18.50;99.90;;;;;;4992238;28;20496;-34
2023/09/19 11:17:15;;;;;;;6.88;1.27;;;18.50;99.90;;;;;;4990700;28;20061;-34
2023/09/19 11:22:48;;;;;;;6.50;0.95;;;18.70;99.90;;;;;;4987988;28;20062;-34
2023/09/19 11:25:49;;;;;;;9.63;1.27;;;18.90;99.90;;;;;;4988760;28;20435;-34
2023/09/19 11:28:25;;;;;;;5.97;1.15;;;18.90;99.90;;;;;;4974891;28;20456;-34
2023/09/19 11:30:55;;;;;;;8.85;1.10;;;18.80;99.90;;;;;;4988489;28;20097;-34
2023/09/19 11:33:31;;;;;;;6.38;1.00;;;18.70;99.90;;;;;;4984385;28;20641;-34
2023/09/19 11:36:09;;;;;;;8.52;0.90;;;18.70;99.90;;;;;;4990498;28;20046;-34
2023/09/19 11:38:45;;;;;;;10.25;1.17;;;18.70;99.90;;;;;;4989039;28;20062;-34
2023/09/19 11:41:26;;;;;;;9.50;1.25;;;18.70;99.90;;;;;;4991587;28;20450;-34
2023/09/19 11:43:56;;;;;;;5.20;0.73;;;18.50;99.90;;;;;;4988880;28;20416;-34
2023/09/19 11:46:21;;;;;;;6.32;0.93;;;18.50;99.90;;;;;;4986849;28;20046;-34
2023/09/19 11:48:51;;;;;;;2.45;0.52;;;18.60;99.90;;;;;;4988228;28;20065;-34
2023/09/19 11:51:26;;;;;;;3.83;0.85;;;18.70;99.90;;;;;;4985712;28;20097;-35
2023/09/19 11:53:54;;;;;;;9.07;1.27;;;18.70;99.90;;;;;;4972097;28;20050;-35
2023/09/19 11:56:23;;;;;;;7.10;1.15;;;18.70;99.90;;;;;;4987858;28;20504;-34
2023/09/19 11:58:53;;;;;;;6.65;1.27;;;18.70;99.90;;;;;;4989234;28;20058;-34
2023/09/19 12:01:30;;;;;;;9.98;1.13;;;18.60;99.90;;;;;;4983598;28;20057;-34
2023/09/19 12:03:59;;;;;;;4.53;0.50;;;18.60;99.90;;;;;;4988604;28;20504;-35
2023/09/19 12:06:29;;;;;;;3.20;0.60;;;18.60;99.90;;;;;;4984391;28;20120;-35
2023/09/19 12:08:57;;;;;;;8.55;1.17;;;18.50;99.90;;;;;;5002701;28;20562;-35
2023/09/19 12:11:23;;;;;;;6.07;0.93;;;18.50;99.90;;;;;;4983439;28;20046;-35
2023/09/19 12:13:50;;;;;;;3.83;0.60;;;18.40;99.90;;;;;;4986725;28;20478;-35
2023/09/19 12:16:23;;;;;;;6.93;1.40;;;18.30;99.90;;;;;;4971048;28;20049;-35
2023/09/19 12:18:50;;;;;;;3.38;0.68;;;18.40;99.90;;;;;;4991836;28;20047;-35
2023/09/19 12:21:32;;;;;;;5.80;0.75;;;18.80;99.90;;;;;;4983218;28;21036;-35
2023/09/19 12:24:13;;;;;;;4.68;0.95;;;19.30;99.90;;;;;;4984995;28;20101;-35
2023/09/19 12:26:50;;;;;;;7.15;1.55;;;19.80;99.90;;;;;;4999310;28;20054;-35
2023/09/19 12:29:19;;;;;;;5.15;0.90;;;19.90;99.90;;;;;;4970734;28;20607;-36
2023/09/19 12:31:58;;;;;;;5.13;0.80;;;19.80;99.90;;;;;;4990812;28;20665;-35
2023/09/19 12:34:28;;;;;;;4.82;0.82;;;19.60;99.90;;;;;;4983787;28;20145;-35
2023/09/19 12:37:29;;;;;;;5.85;1.27;;;19.40;99.90;;;;;;4987690;28;20397;-35
2023/09/19 12:40:22;;;;;;;6.13;1.00;;;19.30;99.90;;;;;;4983287;28;20124;-35
2023/09/19 12:42:48;;;;;;;8.75;1.98;;;19.20;99.90;;;;;;4985996;28;20500;-35
2023/09/19 12:45:17;;;;;;;3.30;0.80;;;19.10;99.90;;;;;;4965536;28;20050;-34
2023/09/19 12:48:34;;;;;;;3.78;0.80;;;19.00;99.90;;;;;;4980970;28;20081;-34
2023/09/19 12:51:00;;;;;;;4.30;0.77;;;18.90;99.90;;;;;;4975130;28;20104;-35
2023/09/19 12:53:29;;;;;;;7.03;0.77;;;18.90;99.90;;;;;;4985403;28;20436;-35
2023/09/19 12:56:01;;;;;;;4.00;0.65;;;18.70;99.90;;;;;;4985723;28;20112;-35
2023/09/19 12:58:27;;;;;;;5.70;0.88;;;18.60;99.90;;;;;;4986701;28;20042;-35
2023/09/19 13:00:53;;;;;;;5.47;0.73;;;18.50;99.90;;;;;;4988088;28;20064;-35
2023/09/19 13:03:24;;;;;;;3.38;0.70;;;18.50;99.90;;;;;;4989366;28;20176;-36
2023/09/19 13:06:00;;;;;;;4.78;0.85;;;18.40;99.90;;;;;;4987025;28;20054;-35
2023/09/19 13:08:32;;;;;;;7.55;0.88;;;18.40;99.90;;;;;;4986792;28;20113;-35
2023/09/19 13:11:06;;;;;;;;;;;18.40;99.90;;;;;;4985727;28;20511;-35
2023/09/19 13:13:36;;;;;;;6.35;0.90;;;18.40;99.90;;;;;;4985995;28;19936;-35